Terminal Aerodrome Forecast
Issued by NWS Tiyan, Guam

Home | Current Version | Previous Version | Text Only | Print | Product List | Glossary On
Versions: 1 2 3 4 5 6 7 8 9 10 11 12 13 14 15 16 17 18 19 20 21 22 23 24 25 26 27 28 29 30 31 32 33 34 35 36 37 38 39 40
842
FTPQ31 PGUM 182321
TAFGUM
TAF
PGUM 182321Z 1900/2006 06014KT P6SM VCSH FEW015 SCT025 BKN060
      TEMPO 1900/1903 07015G22KT 5SM -SHRA SCT012 BKN025
     FM190300 07015G25KT P6SM VCSH SCT018 SCT030 BKN070=

USA.gov is the U.S. government's official web portal to all federal, state and local government web resources and services.